Flight Track Log - Related Links

Times and Time Zones

All times are in EST time to prevent confusion due to time zone crossing. See the N7711Y flight status page for this flight to view local times or setup timezone preferences in your user account.

Time Position Orientation Groundspeed Altitude Reporting Facility
EST Latitude Longitude Course Direction KTS MPH feet Rate Location/Type
Sun 04:12:09 PM 33.8792 -78.2200 258° West 136 157 3,800  Level Jacksonville Center
Sun 04:13:10 PM 33.8572 -78.2486 227° Southwest 136 157 5,000 1,140 Climbing Jacksonville Center
Sun 04:14:10 PM 33.8314 -78.2800 225° Southwest 131 151 6,100 1,210 Climbing Jacksonville Center
Sun 04:15:00 PM 33.4839 -78.5877 226° Southwest  Level FlightAware
Sun 04:15:09 PM 33.8075 -78.3089 225° Southwest 131 151 7,400  Level Jacksonville Center
Sun 04:16:00 PM 33.4539 -78.6244 226° Southwest  Level FlightAware
Sun 04:16:09 PM 33.7833 -78.3375 225° Southwest 126 145 8,600  Level Jacksonville Center
Sun 04:17:09 PM 33.7594 -78.3661 225° Southwest 126 145 9,700 700 Climbing Jacksonville Center
Sun 04:18:09 PM 33.7294 -78.4003 223° Southwest 131 151 10,000 150 Climbing Jacksonville Center
Sun 04:19:09 PM 33.6933 -78.4419 224° Southwest 162 186 10,000  Level Jacksonville Center
Sun 04:20:09 PM 33.6592 -78.4836 225° Southwest 175 201 10,000  Level Jacksonville Center
Sun 04:21:09 PM 33.6250 -78.5228 224° Southwest 175 201 10,000  Level Jacksonville Center
Sun 04:22:09 PM 33.5931 -78.5617 225° Southwest 175 201 10,000  Level Jacksonville Center
Sun 04:23:09 PM 33.5589 -78.6008 224° Southwest 175 201 10,000  Level Jacksonville Center
Sun 04:24:09 PM 33.5247 -78.6397 224° Southwest 175 201 10,000  Level Jacksonville Center
Sun 04:25:09 PM 33.4928 -78.6786 225° Southwest 170 196 10,000  Level Jacksonville Center
Sun 04:26:09 PM 33.4586 -78.7178 224° Southwest 170 196 10,000  Level Jacksonville Center
Sun 04:27:09 PM 33.4286 -78.7564 227° Southwest 170 196 10,000  Level Jacksonville Center
Sun 04:28:09 PM 33.3942 -78.7953 223° Southwest 170 196 10,000  Level Jacksonville Center
Sun 04:29:09 PM 33.3661 -78.8264 223° Southwest 170 196 10,000  Level Jacksonville Center
Sun 04:30:09 PM 33.3339 -78.8678 227° Southwest 170 196 10,000  Level Jacksonville Center
Sun 04:31:09 PM 33.3017 -78.9039 223° Southwest 170 196 10,000  Level Jacksonville Center
Sun 04:32:09 PM 33.2697 -78.9425 225° Southwest 170 196 10,000  Level Jacksonville Center
Sun 04:33:10 PM 33.2394 -78.9811 227° Southwest 170 196 10,000  Level Jacksonville Center
Sun 04:34:09 PM 33.2008 -79.0178 218° Southwest 170 196 10,000  Level Jacksonville Center
Sun 04:35:09 PM 33.1728 -79.0536 227° Southwest 170 196 10,000  Level Jacksonville Center
Sun 04:36:09 PM 33.1408 -79.0947 227° Southwest 170 196 10,000  Level Jacksonville Center
Sun 04:37:09 PM 33.1064 -79.1308 221° Southwest 170 196 10,000  Level Jacksonville Center
Sun 04:38:10 PM 33.0742 -79.1694 225° Southwest 170 196 10,000  Level Jacksonville Center
Sun 04:39:10 PM 33.0417 -79.2078 225° Southwest 170 196 10,000  Level Jacksonville Center
Sun 04:40:10 PM 33.0094 -79.2464 225° Southwest 170 196 10,000  Level Jacksonville Center
Sun 04:41:10 PM 32.9772 -79.2822 223° Southwest 170 196 10,000  Level Jacksonville Center
Sun 04:42:10 PM 32.9469 -79.3206 227° Southwest 170 196 10,000  Level Jacksonville Center
Sun 04:43:10 PM 32.9125 -79.3567 221° Southwest 170 196 10,000  Level Jacksonville Center
Sun 04:44:10 PM 32.8800 -79.3925 223° Southwest 170 196 10,000  Level Jacksonville Center
Sun 04:45:10 PM 32.8497 -79.4308 227° Southwest 170 196 10,000  Level Jacksonville Center
Sun 04:46:10 PM 32.8175 -79.4667 223° Southwest 170 196 10,000  Level Jacksonville Center
Sun 04:47:10 PM 32.7850 -79.5050 225° Southwest 170 196 10,000  Level Jacksonville Center
Sun 04:48:10 PM 32.7528 -79.5433 225° Southwest 170 196 10,000  Level Jacksonville Center
Sun 04:49:10 PM 32.7203 -79.5792 223° Southwest 170 196 10,000  Level Jacksonville Center
Sun 04:50:10 PM 32.6878 -79.6172 225° Southwest 170 196 10,000  Level Jacksonville Center
Sun 04:51:10 PM 32.6553 -79.6528 223° Southwest 170 196 10,000  Level Jacksonville Center
Sun 04:52:10 PM 32.6250 -79.6911 227° Southwest 165 190 10,000  Level Jacksonville Center
Sun 04:53:10 PM 32.5903 -79.7267 221° Southwest 165 190 10,000  Level Jacksonville Center
Sun 04:54:10 PM 32.5600 -79.7647 227° Southwest 165 190 10,000  Level Jacksonville Center
Sun 04:55:10 PM 32.5275 -79.8003 223° Southwest 165 190 10,000  Level Jacksonville Center
Sun 04:56:10 PM 32.4950 -79.8358 223° Southwest 165 190 10,000  Level Jacksonville Center
Sun 04:57:09 PM 32.4606 -79.8789 227° Southwest 165 190 10,000  Level Jacksonville Center
Sun 04:58:10 PM 32.4281 -79.9144 223° Southwest 165 190 10,000  Level Jacksonville Center
Sun 04:59:09 PM 32.3953 -79.9475 220° Southwest 165 190 10,000  Level Jacksonville Center
Sun 05:00:09 PM 32.3650 -79.9856 227° Southwest 160 184 10,000  Level Jacksonville Center
Sun 05:01:09 PM 32.3325 -80.0233 224° Southwest 160 184 10,000  Level Jacksonville Center
Sun 05:02:10 PM 32.2997 -80.0589 223° Southwest 160 184 10,000  Level Jacksonville Center
Sun 05:03:10 PM 32.2672 -80.0942 223° Southwest 160 184 10,000  Level Jacksonville Center
Sun 05:04:10 PM 32.2344 -80.1319 224° Southwest 160 184 10,000  Level Jacksonville Center
Sun 05:05:10 PM 32.2042 -80.1722 228° Southwest 160 184 10,000  Level Jacksonville Center
Sun 05:06:10 PM 32.1692 -80.2028 216° Southwest 160 184 10,000  Level Jacksonville Center
Sun 05:08:10 PM 32.1039 -80.2758 223° Southwest 165 190 10,000  Level Jacksonville Center
Sun 05:09:09 PM 32.0717 -80.3208 230° Southwest 170 196 10,000  Level Jacksonville Center
Sun 05:10:10 PM 32.0408 -80.3561 224° Southwest 165 190 10,000 -50 Level Jacksonville Center
Sun 05:11:10 PM 32.0061 -80.3961 224° Southwest 171 197 9,900  Descending Jacksonville Center
Sun 05:12:10 PM 31.9736 -80.4314 223° Southwest 171 197 10,000 50 Climbing Jacksonville Center
Sun 05:13:10 PM 31.9408 -80.4664 222° Southwest 171 197 10,000  Level Jacksonville Center
Sun 05:14:10 PM 31.9103 -80.5014 224° Southwest 171 197 10,000  Level Jacksonville Center
Sun 05:15:10 PM 31.8733 -80.5417 223° Southwest 171 197 10,000  Level Jacksonville Center
Sun 05:16:10 PM 31.8406 -80.5792 224° Southwest 171 197 10,000  Level Jacksonville Center
Sun 05:17:10 PM 31.8100 -80.6142 224° Southwest 171 197 10,000  Level Jacksonville Center
Sun 05:18:10 PM 31.7708 -80.6542 221° Southwest 171 197 10,000  Level Jacksonville Center
Sun 05:19:10 PM 31.7381 -80.6817 216° Southwest 171 197 10,000  Level Jacksonville Center
Sun 05:20:10 PM 31.6925 -80.7097 208° Southwest 171 197 10,000  Level Jacksonville Center
Sun 05:21:10 PM 31.6472 -80.7378 208° Southwest 177 204 10,000  Level Jacksonville Center
Sun 05:23:57 PM 31.5231 -80.8089 206° Southwest 181 208 10,000  Level Jacksonville Center
Sun 05:24:57 PM 31.4858 -80.8339 210° Southwest 187 215 10,000  Level Jacksonville Center
Sun 05:25:57 PM 31.4383 -80.8617 207° Southwest 187 215 10,000  Level Jacksonville Center
Sun 05:26:57 PM 31.3950 -80.8894 209° Southwest 182 209 10,000  Level Jacksonville Center
Sun 05:27:57 PM 31.3556 -80.9122 206° Southwest 182 209 10,000  Level Jacksonville Center
Sun 05:28:57 PM 31.3058 -80.9400 206° Southwest 182 209 10,000 -50 Level Jacksonville Center
Sun 05:29:57 PM 31.2647 -80.9675 210° Southwest 182 209 9,900  Descending Jacksonville Center
Sun 05:30:57 PM 31.2233 -80.9928 208° Southwest 175 201 10,000 50 Climbing Jacksonville Center
Sun 05:31:57 PM 31.1756 -81.0181 204° Southwest 180 207 10,000  Level Jacksonville Center
Sun 05:32:57 PM 31.1322 -81.0481 211° Southwest 175 201 10,000  Level Jacksonville Center
Sun 05:33:57 PM 31.0867 -81.0708 203° Southwest 180 207 10,000 -350 Level Jacksonville Center
Sun 05:34:57 PM 31.0406 -81.0692 178° South 175 201 9,300 -700 Descending Jacksonville Center
Sun 05:35:57 PM 30.9842 -81.0703 181° South 182 209 8,600 -700 Descending Jacksonville Center
Sun 05:36:57 PM 30.9342 -81.0761 186° South 187 215 7,900 -700 Descending Jacksonville Center
Sun 05:37:57 PM 30.8842 -81.0794 183° South 187 215 7,200 -667 Descending Jacksonville Center
Sun 05:38:18 PM 30.8633 -81.0800 181° South 183 211 7,000 -700 Descending Jacksonville Center
Sun 05:38:57 PM 30.8319 -81.0853 188° South 187 215 6,500 -706 Descending Jacksonville Center
Sun 05:39:43 PM 30.7903 -81.0861 181° South 184 212 6,000 -500 Descending Jacksonville Center
Sun 05:39:57 PM 30.7819 -81.0886 194° South 187 215 6,000  Level Jacksonville Center
Sun 05:40:44 PM 30.7403 -81.0919 184° South 171 197 6,000  Level Jacksonville Center
Sun 05:40:57 PM 30.7342 -81.0944 199° South 181 208 6,000  Level Jacksonville Center
Sun 05:41:57 PM 30.6839 -81.0978 183° South 176 203 6,000  Level Jacksonville Center
Sun 05:42:46 PM 30.6444 -81.1083 193° South 169 194 6,000  Level Jacksonville Center
Sun 05:42:57 PM 30.6403 -81.1083 180° South 176 203 6,000  Level Jacksonville Center
Sun 05:43:46 PM 30.5986 -81.1186 192° South 168 193 6,000 -100 Level Jacksonville Center
Sun 05:43:57 PM 30.5944 -81.1189 183° South 176 203 5,900 -327 Descending Jacksonville Center
Sun 05:44:41 PM 30.5592 -81.1389 206° Southwest 176 203 5,700 -300 Descending Jacksonville Center
Sun 05:44:57 PM 30.5531 -81.1436 214° Southwest 171 197 5,600 -492 Descending Jacksonville Center
Sun 05:45:42 PM 30.5283 -81.1731 226° Southwest 160 184 5,200 -600 Descending Jacksonville Center
Sun 05:45:57 PM 30.5203 -81.1781 208° Southwest 165 190 5,000 -689 Descending Jacksonville Center
Sun 05:46:43 PM 30.4956 -81.2075 226° Southwest 145 167 4,500 -600 Descending Jacksonville Center
Sun 05:46:57 PM 30.4914 -81.2100 207° Southwest 165 190 4,400 -590 Descending Jacksonville Center
Sun 05:47:44 PM 30.4667 -81.2392 225° Southwest 148 170 3,900 -600 Descending Jacksonville Center
Sun 05:47:57 PM 30.4606 -81.2442 215° Southwest 160 184 3,800 -600 Descending Jacksonville Center
Sun 05:48:44 PM 30.4358 -81.2736 226° Southwest 147 169 3,300 -606 Descending Jacksonville Center
Sun 05:49:46 PM 30.4050 -81.3053 222° Southwest 149 171 2,700 -609 Descending Jacksonville Center
Sun 05:50:52 PM 30.3719 -81.3397 222° Southwest 148 170 2,000 -365 Descending Jacksonville Center
Sun 05:51:41 PM 30.3450 -81.3642 218° Southwest 142 163 2,000  Level Jacksonville Center
Sun 05:52:48 PM 30.3164 -81.4006 228° Southwest 136 157 2,000 -269 Level Jacksonville Center
Sun 05:53:55 PM 30.2939 -81.4419 238° Southwest 157 181 1,400 -563 Descending Jacksonville Center
Sun 05:54:56 PM 30.3047 -81.4825 287° West 120 138 800 -522 Descending Jacksonville Center
Sun 05:55:50 PM 30.3258 -81.5017 322° Northwest 94 108 400 -444 Descending Jacksonville Center

Login

Don't have an account? Register now (free) for customized features, flight alerts, and more!